Latest Weather Observations for Oakey

IDQ60801

Issued at 7:03 am EST Sunday 26 June 2016 (issued every 30 minutes, with the page automatically refreshed every 10 minutes)

About weather observations | Map of weather stations | Latest weather observations for QLD | Other Formats
Station Details ID: 041359 Name: OAKEY AERO Lat: -27.40 Lon: 151.74 Height: 405.69 m
Data from the previous 72 hours. | See also: Recent months at Oakey
Date/Time
EST
Temp
°C
App
Temp
°C
Dew
Point
°C
Rel
Hum
%
Delta-T
°C
Wind Press
QNH
hPa
Press
MSL
hPa
Rain since
9am
mm
Dir  Spd
km/h
Gust
km/h
Spd
kts
Gust
kts
26/07:00am 0.1 -3.7 -0.5 96 0.2 SE 9 11 5 6 1020.9 1020.8 0.0
26/06:30am -0.4 -2.9 -1.1 95 0.2 NNW 2 7 1 4 1021.2 1021.1 0.0
26/06:00am -0.7 -4.2 -1.5 94 0.3 NNW 7 11 4 6 1020.5 1020.5 0.0
26/05:30am -0.4 -3.9 -1.1 95 0.2 NE 7 9 4 5 1019.4 1019.3 0.0
26/05:00am -1.0 -5.3 -1.7 95 0.2 SE 11 13 6 7 1018.9 1018.8 0.0
26/04:30am -1.7 -5.2 -2.5 94 0.2 ESE 6 7 3 4 1019.2 1019.1 0.0
26/04:00am -1.8 -5.3 -2.8 93 0.3 E 6 7 3 4 1019.3 1019.2 0.0
26/03:30am -1.6 -5.3 -2.6 93 0.3 E 7 9 4 5 1019.3 1019.2 0.0
26/03:00am -1.2 -4.8 -2.3 92 0.3 NNE 7 9 4 5 1019.2 1019.1 0.0
26/02:30am -0.5 -4.4 -1.6 92 0.4 NNE 9 9 5 5 1019.5 1019.5 0.0
26/02:00am -0.7 -5.0 -1.8 92 0.4 N 11 13 6 7 1020.0 1020.0 0.0
26/01:30am -0.6 -4.9 -1.7 92 0.4 NNE 11 13 6 7 1019.8 1019.8 0.0
26/01:00am 0.0 -4.6 -1.0 93 0.4 NNE 13 15 7 8 1019.9 1019.9 0.0
26/12:30am -0.2 -3.7 -1.5 91 0.5 NNE 7 9 4 5 1020.1 1020.1 0.0
26/12:00am 0.3 -3.5 -1.0 91 0.5 NNE 9 11 5 6 1020.1 1020.1 0.0
 
Date/Time
EST
Temp
°C
App
Temp
°C
Dew
Point
°C
Rel
Hum
%
Delta-T
°C
Wind Press
QNH
hPa
Press
MSL
hPa
Rain since
9am
mm
Dir  Spd
km/h
Gust
km/h
Spd
kts
Gust
kts
25/11:30pm 0.7 -2.7 -0.9 89 0.6 NNE 7 11 4 6 1020.5 1020.5 0.0
25/11:00pm 1.2 -1.6 -0.4 89 0.6 ENE 4 6 2 3 1020.8 1020.7 0.0
25/10:30pm 1.9 -0.1 -0.3 85 0.8 CALM 0 0 0 0 1021.2 1021.1 0.0
25/10:00pm 1.5 -0.6 -0.9 84 0.9 CALM 0 0 0 0 1021.6 1021.6 0.0
25/09:30pm 2.1 -1.1 -0.5 83 1.0 W 6 9 3 5 1021.3 1021.2 0.0
25/09:00pm 2.7 -0.9 0.3 84 0.9 W 9 13 5 7 1021.2 1021.1 0.0
25/08:30pm 2.5 -0.9 -0.3 82 1.1 W 7 9 4 5 1021.0 1020.9 0.0
25/08:00pm 4.6 0.2 0.2 73 1.7 SW 13 15 7 8 1020.9 1020.8 0.0
25/07:30pm 4.1 -0.2 0.8 79 1.3 WSW 13 15 7 8 1020.8 1020.7 0.0
25/07:00pm 5.0 1.0 0.4 72 1.8 WSW 11 13 6 7 1020.5 1020.5 0.0
25/06:30pm 6.3 1.9 0.2 65 2.4 WSW 13 17 7 9 1020.1 1020.1 0.0
25/06:00pm 7.0 2.2 0.2 62 2.7 WSW 15 17 8 9 1019.6 1019.6 0.0
25/05:30pm 8.3 3.4 -0.7 53 3.6 WSW 15 17 8 9 1019.2 1019.1 0.0
25/05:00pm 10.3 4.6 -0.8 46 4.5 WSW 19 26 10 14 1019.0 1018.9 0.0
25/04:30pm 11.8 5.5 -1.3 40 5.3 SW 22 28 12 15 1018.7 1018.6 0.0
25/04:00pm 12.3 5.7 -0.6 41 5.4 WSW 24 33 13 18 1018.5 1018.4 0.0
25/03:30pm 12.4 5.2 -2.2 36 5.9 WSW 26 33 14 18 1018.3 1018.2 0.0
25/03:00pm 12.7 5.5 -2.0 36 5.9 SW 26 35 14 19 1018.3 1018.2 0.0
25/02:30pm 12.6 5.1 -1.7 37 5.8 WSW 28 35 15 19 1018.4 1018.3 0.0
25/02:00pm 12.9 6.3 -0.4 40 5.6 WSW 24 35 13 19 1018.6 1018.5 0.0
25/01:30pm 12.3 5.7 -0.6 41 5.4 WSW 24 35 13 19 1018.8 1018.7 0.0
25/01:00pm 11.9 4.8 -0.9 41 5.3 WSW 26 35 14 19 1019.2 1019.1 0.0
25/12:30pm 11.9 3.7 -0.9 41 5.3 WSW 32 39 17 21 1019.4 1019.3 0.0
25/12:00pm 11.4 4.1 0.2 46 4.7 WSW 28 41 15 22 1019.8 1019.8 0.0
25/11:30am 10.7 3.4 0.2 48 4.4 SW 28 37 15 20 1020.4 1020.4 0.0
25/11:00am 10.1 3.7 1.2 54 3.8 WSW 24 33 13 18 1020.5 1020.5 0.0
25/10:30am 9.6 2.4 1.0 55 3.6 WSW 28 37 15 20 1020.5 1020.5 0.0
25/10:00am 8.8 1.3 1.5 60 3.1 WSW 30 37 16 20 1020.6 1020.6 0.0
25/09:30am 7.6 1.1 2.5 70 2.2 WSW 26 33 14 18 1020.9 1020.8 0.0
25/09:00am 6.6 1.0 3.2 79 1.5 WSW 22 28 12 15 1020.6 1020.6 1.2
25/08:30am 5.8 0.5 3.1 83 1.1 W 20 24 11 13 1020.5 1020.5 1.2
25/08:00am 4.8 0.4 2.5 85 1.0 W 15 19 8 10 1020.5 1020.5 1.2
25/07:30am 3.9 -1.0 2.3 89 0.7 W 17 19 9 10 1020.2 1020.2 1.2
25/07:00am 2.9 -2.0 1.7 92 0.5 WNW 17 19 9 10 1019.7 1019.7 1.2
25/06:30am 2.6 -2.0 1.6 93 0.4 W 15 17 8 9 1019.6 1019.6 1.2
25/06:00am 2.9 -1.7 1.7 92 0.5 W 15 15 8 8 1019.4 1019.3 1.2
25/05:30am 3.5 -0.6 2.0 90 0.6 W 13 17 7 9 1019.2 1019.1 1.2
25/05:00am 3.8 -0.6 2.5 91 0.5 W 15 19 8 10 1018.7 1018.6 1.2
25/04:30am 4.2 -1.1 2.9 91 0.5 WSW 20 20 11 11 1018.6 1018.5 1.2
25/04:00am 4.5 -0.6 3.0 90 0.6 WSW 19 20 10 11 1018.5 1018.4 1.2
25/03:30am 4.8 -0.3 3.0 88 0.8 WSW 19 22 10 12 1018.5 1018.4 1.2
25/03:00am 5.3 -0.3 3.5 88 0.8 WSW 22 24 12 13 1018.5 1018.4 1.2
25/02:30am 5.7 0.1 3.5 86 0.9 WSW 22 26 12 14 1018.5 1018.4 1.2
25/02:00am 6.0 0.4 3.7 85 1.0 WSW 22 26 12 14 1018.5 1018.4 1.2
25/01:30am 6.3 0.8 4.0 85 1.0 WSW 22 26 12 14 1018.6 1018.5 1.2
25/01:00am 5.9 1.0 4.1 88 0.8 WSW 19 20 10 11 1018.7 1018.6 1.2
25/12:30am 7.2 2.1 4.0 80 1.4 WSW 20 22 11 12 1018.9 1018.8 1.2
25/12:00am 8.4 2.6 4.2 75 1.9 WSW 24 30 13 16 1019.0 1018.9 1.2
 
Date/Time
EST
Temp
°C
App
Temp
°C
Dew
Point
°C
Rel
Hum
%
Delta-T
°C
Wind Press
QNH
hPa
Press
MSL
hPa
Rain since
9am
mm
Dir  Spd
km/h
Gust
km/h
Spd
kts
Gust
kts
24/11:30pm 9.0 3.3 5.0 76 1.8 WSW 24 32 13 17 1019.1 1019.0 1.2
24/11:00pm 9.2 3.7 5.8 79 1.6 WSW 24 30 13 16 1019.0 1018.9 1.2
24/10:30pm 8.8 4.3 6.1 83 1.3 WSW 19 22 10 12 1018.9 1018.8 1.2
24/10:00pm 8.8 4.7 6.3 84 1.2 W 17 19 9 10 1018.8 1018.7 1.2
24/09:30pm 9.6 5.5 6.3 80 1.6 WSW 17 20 9 11 1018.5 1018.4 1.2
24/09:00pm 9.9 6.3 6.8 81 1.5 WSW 15 20 8 11 1018.3 1018.2 1.2
24/08:30pm 9.3 5.7 6.6 83 1.3 WSW 15 17 8 9 1017.8 1017.8 1.2
24/08:00pm 9.3 6.1 6.7 84 1.2 W 13 15 7 8 1017.3 1017.3 1.2
24/07:30pm 9.4 5.8 6.7 83 1.3 W 15 17 8 9 1016.9 1016.8 1.2
24/07:00pm 10.4 6.3 6.4 76 1.9 WSW 17 20 9 11 1016.6 1016.5 1.2
24/06:30pm 11.2 7.3 6.9 75 2.1 WSW 17 20 9 11 1016.2 1016.1 1.2
24/06:00pm 12.5 7.2 7.0 69 2.7 WSW 24 32 13 17 1015.6 1015.5 1.2
24/05:30pm 13.4 6.7 7.2 66 3.1 W 32 43 17 23 1014.9 1014.8 1.2
24/05:00pm 14.3 7.6 8.0 66 3.2 W 33 41 18 22 1014.5 1014.4 1.2
24/04:30pm 15.1 8.4 9.7 70 2.9 W 35 50 19 27 1014.1 1014.0 1.2
24/04:00pm 15.4 9.5 10.6 73 2.6 WSW 32 41 17 22 1013.6 1013.5 1.2
24/03:30pm 15.8 9.7 11.6 76 2.3 W 35 46 19 25 1013.3 1013.2 1.2
24/03:00pm 15.8 10.3 12.0 78 2.1 W 32 41 17 22 1013.1 1012.9 1.2
24/02:30pm 15.5 10.1 12.3 81 1.8 W 32 43 17 23 1012.7 1012.6 1.2
24/02:00pm 14.7 9.1 11.5 81 1.8 W 32 39 17 21 1012.6 1012.5 1.2
24/01:30pm 14.7 8.1 11.3 80 1.9 W 37 50 20 27 1012.7 1012.6 1.2
24/01:23pm 15.4 8.4 11.2 76 2.3 WNW 39 50 21 27 1012.8 1012.7 1.2
24/01:00pm 17.3 13.3 14.2 82 1.8 WNW 28 39 15 21 1012.6 1012.5 1.2
24/12:30pm 15.6 12.2 13.8 89 1.0 WNW 24 32 13 17 1013.1 1012.9 1.2
24/12:29pm 15.5 12.1 13.7 89 1.0 WNW 24 32 13 17 1013.2 1013.1 1.2
24/12:17pm 15.3 11.6 14.0 92 0.7 W 26 32 14 17 1013.4 1013.3 1.0
24/12:11pm 15.2 10.5 13.2 88 1.1 W 30 37 16 20 1013.5 1013.4 1.0
24/12:00pm 15.9 11.5 12.8 82 1.7 WNW 28 37 15 20 1013.7 1013.6 0.6
24/11:44am 16.5 13.1 13.8 84 1.6 WNW 24 35 13 19 1013.9 1013.8 0.6
24/11:43am 16.5 13.1 13.8 84 1.6 W 24 30 13 16 1013.8 1013.7 0.6
24/11:30am 16.0 12.0 14.0 88 1.2 WNW 28 33 15 18 1014.1 1014.0 0.6
24/11:00am 15.2 10.7 13.9 92 0.7 WNW 30 35 16 19 1014.7 1014.6 0.6
24/10:30am 14.5 10.8 14.0 97 0.3 WNW 26 33 14 18 1015.0 1014.9 0.6
24/10:00am 14.6 10.2 14.1 97 0.3 WNW 30 37 16 20 1015.2 1015.2 0.4
24/09:30am 14.5 10.5 14.0 97 0.3 NW 28 35 15 19 1015.1 1015.0 0.2
24/09:00am 14.1 10.7 13.6 97 0.3 NW 24 30 13 16 1014.9 1014.8 2.4
24/08:30am 14.0 10.5 13.4 96 0.3 NW 24 32 13 17 1014.7 1014.6 2.2
24/08:20am 14.0 10.5 13.4 96 0.3 NW 24 32 13 17 1014.6 1014.5 2.2
24/08:00am 13.9 10.4 13.3 96 0.3 NW 24 30 13 16 1014.6 1014.5 2.2
24/07:30am 13.7 11.1 13.2 97 0.3 NW 19 22 10 12 1014.4 1014.3 2.0
24/07:00am 13.6 10.8 13.1 97 0.3 NW 20 26 11 14 1014.1 1014.0 2.0
24/06:30am 13.5 10.7 13.2 98 0.2 NW 20 28 11 15 1014.1 1014.0 2.0
24/06:07am 13.4 11.2 13.2 99 0.1 NW 17 20 9 11 1013.8 1013.7 2.0
24/06:05am 13.4 11.2 13.2 99 0.1 NW 17 20 9 11 1013.8 1013.7 2.0
24/06:00am 13.3 11.8 13.1 99 0.1 NW 13 20 7 11 1013.6 1013.5 2.0
24/05:56am 13.2 11.7 13.0 99 0.1 NW 13 15 7 8 1013.6 1013.5 2.0
24/05:41am 13.1 11.5 12.9 99 0.1 NNW 13 17 7 9 1013.6 1013.5 1.8
24/05:30am 13.1 11.5 12.9 99 0.1 NNW 13 20 7 11 1013.2 1013.1 1.8
24/05:03am 13.2 11.6 12.9 98 0.2 NNW 13 15 7 8 1013.4 1013.3 1.2
24/05:00am 13.2 11.6 12.9 98 0.2 NNW 13 15 7 8 1013.3 1013.2 1.2
24/04:57am 13.2 11.6 12.7 97 0.3 NNW 13 17 7 9 1013.3 1013.2 1.2
24/04:54am 13.2 11.6 12.7 97 0.3 NNW 13 17 7 9 1013.2 1013.1 1.2
24/04:30am 13.2 11.7 13.0 99 0.1 NNW 13 17 7 9 1013.3 1013.2 1.0
24/04:23am 13.1 11.9 12.9 99 0.1 NNW 11 17 6 9 1013.3 1013.2 1.0
24/04:00am 12.6 12.0 12.4 99 0.1 WNW 7 9 4 5 1013.1 1012.9 1.0
24/03:30am 12.6 11.6 12.4 99 0.1 WNW 9 9 5 5 1013.4 1013.3 1.0
24/03:00am 12.6 12.0 12.4 99 0.1 WSW 7 9 4 5 1013.4 1013.3 1.0
24/02:30am 12.4 11.9 12.2 99 0.1 N 6 7 3 4 1013.1 1012.9 1.0
24/02:00am 12.5 11.9 12.3 99 0.1 NNE 7 9 4 5 1013.2 1013.1 1.0
24/01:30am 12.7 11.4 12.5 99 0.1 NE 11 13 6 7 1013.5 1013.4 1.0
24/01:00am 12.7 11.8 12.5 99 0.1 NNE 9 9 5 5 1014.0 1013.9 1.0
24/12:30am 12.9 13.7 12.7 99 0.1 CALM 0 0 0 0 1014.4 1014.3 0.8
24/12:00am 13.1 14.0 12.8 98 0.2 CALM 0 0 0 0 1014.8 1014.7 0.8
 
Date/Time
EST
Temp
°C
App
Temp
°C
Dew
Point
°C
Rel
Hum
%
Delta-T
°C
Wind Press
QNH
hPa
Press
MSL
hPa
Rain since
9am
mm
Dir  Spd
km/h
Gust
km/h
Spd
kts
Gust
kts
23/11:30pm 13.2 13.0 12.9 98 0.2 W 6 7 3 4 1014.6 1014.5 0.8
23/11:00pm 13.1 12.8 12.6 97 0.3 NNE 6 9 3 5 1014.5 1014.4 0.6
23/10:30pm 13.2 12.9 12.7 97 0.3 NE 6 9 3 5 1014.5 1014.4 0.6
23/10:00pm 13.3 12.5 12.8 97 0.3 SSW 9 11 5 6 1014.5 1014.4 0.6
23/09:30pm 13.4 13.1 12.8 96 0.3 N 6 7 3 4 1014.9 1014.8 0.6
23/09:00pm 13.3 12.9 12.5 95 0.4 NNE 6 7 3 4 1014.5 1014.4 0.6
23/08:30pm 13.3 13.7 12.4 94 0.5 N 2 6 1 3 1014.4 1014.3 0.6
23/08:00pm 13.4 13.0 12.5 94 0.5 NE 6 7 3 4 1014.4 1014.3 0.6
23/07:30pm 13.5 13.1 12.4 93 0.6 NNW 6 7 3 4 1014.5 1014.4 0.6
23/07:00pm 13.6 13.2 12.3 92 0.7 NNW 6 7 3 4 1014.4 1014.3 0.4
23/06:30pm 13.6 12.9 12.0 90 0.9 NNW 7 7 4 4 1014.2 1014.1 0.4
23/06:00pm 13.6 14.2 12.0 90 0.9 CALM 0 0 0 0 1013.9 1013.8 0.4
23/05:30pm 13.8 13.6 11.7 87 1.1 WNW 4 7 2 4 1013.4 1013.3 0.4
23/05:00pm 14.3 13.2 12.0 86 1.3 NW 9 11 5 6 1013.8 1013.7 0.4
23/04:30pm 14.6 13.2 12.1 85 1.4 NW 11 13 6 7 1014.2 1014.1 0.4
23/04:00pm 14.7 12.9 12.0 84 1.5 NW 13 15 7 8 1014.1 1014.0 0.4
23/03:30pm 14.6 13.0 11.7 83 1.6 WNW 11 13 6 7 1013.8 1013.7 0.4
23/03:00pm 14.6 13.1 11.9 84 1.5 WSW 11 13 6 7 1013.9 1013.8 0.4
23/02:30pm 14.6 13.0 11.7 83 1.6 W 11 13 6 7 1014.1 1014.0 0.2
23/02:00pm 15.2 13.1 11.2 77 2.2 WNW 13 17 7 9 1014.4 1014.3 0.0
23/01:30pm 15.4 12.6 11.2 76 2.3 W 17 20 9 11 1014.6 1014.5 0.0
23/01:00pm 15.4 12.7 11.6 78 2.1 W 17 22 9 12 1015.0 1014.9 0.0
23/12:30pm 15.3 14.0 11.1 76 2.3 WNW 9 13 5 7 1015.4 1015.4 0.0
23/12:00pm 14.4 13.0 11.0 80 1.8 NW 9 11 5 6 1015.9 1015.8 0.0
23/11:30am 14.0 12.6 11.0 82 1.6 W 9 13 5 7 1016.6 1016.5 0.0
23/11:00am 13.5 12.6 11.2 86 1.2 W 7 13 4 7 1016.8 1016.7 0.0
23/10:30am 13.3 12.1 11.5 89 1.0 WSW 9 11 5 6 1016.9 1016.8 0.0
23/10:00am 13.1 12.0 12.0 93 0.6 W 9 11 5 6 1017.2 1017.1 0.0
23/09:30am 12.5 11.3 11.7 95 0.4 WNW 9 13 5 7 1017.5 1017.5 0.0
23/09:00am 12.1 11.0 11.8 98 0.2 WNW 9 13 5 7 1017.7 1017.7 3.0
23/08:30am 11.9 10.3 11.7 99 0.1 N 11 13 6 7 1017.4 1017.4 3.0
23/08:00am 11.5 9.8 11.3 99 0.1 N 11 13 6 7 1017.2 1017.1 3.0
23/07:30am 11.3 10.0 11.1 99 0.1 NNW 9 11 5 6 1017.0 1016.9 3.0

Other Formats:

Comma delimited format used in spreadsheet applications
http://www.bom.gov.au/fwo/IDQ60801/IDQ60801.94552.axf

JavaScript Object Notation format (JSON) in row-major order
http://www.bom.gov.au/fwo/IDQ60801/IDQ60801.94552.json